sensor_id;sensor_type;location;lat;lon;timestamp;P1;durP1;ratioP1;P2;durP2;ratioP2
6997;SDS011;3539;47.982;12.238;2024-02-15T00:02:00;9.37;;;6.00;;
6997;SDS011;3539;47.982;12.238;2024-02-15T00:04:27;7.57;;;5.50;;
6997;SDS011;3539;47.982;12.238;2024-02-15T00:06:55;7.03;;;5.33;;
6997;SDS011;3539;47.982;12.238;2024-02-15T00:09:22;6.63;;;5.07;;
6997;SDS011;3539;47.982;12.238;2024-02-15T00:11:48;6.00;;;5.20;;
6997;SDS011;3539;47.982;12.238;2024-02-15T00:14:15;7.27;;;5.47;;
6997;SDS011;3539;47.982;12.238;2024-02-15T00:16:42;6.10;;;5.20;;
6997;SDS011;3539;47.982;12.238;2024-02-15T00:19:09;7.70;;;5.60;;
6997;SDS011;3539;47.982;12.238;2024-02-15T00:21:36;5.90;;;5.30;;
6997;SDS011;3539;47.982;12.238;2024-02-15T00:24:04;6.07;;;5.23;;
6997;SDS011;3539;47.982;12.238;2024-02-15T00:26:32;6.43;;;5.20;;
6997;SDS011;3539;47.982;12.238;2024-02-15T00:28:59;6.77;;;5.33;;
6997;SDS011;3539;47.982;12.238;2024-02-15T00:31:26;7.17;;;5.83;;
6997;SDS011;3539;47.982;12.238;2024-02-15T00:33:52;7.03;;;4.97;;
6997;SDS011;3539;47.982;12.238;2024-02-15T00:36:20;7.03;;;5.30;;
6997;SDS011;3539;47.982;12.238;2024-02-15T00:38:46;6.43;;;5.77;;
6997;SDS011;3539;47.982;12.238;2024-02-15T00:41:14;7.23;;;5.93;;
6997;SDS011;3539;47.982;12.238;2024-02-15T00:43:41;7.50;;;6.37;;
6997;SDS011;3539;47.982;12.238;2024-02-15T00:46:08;8.63;;;7.50;;
6997;SDS011;3539;47.982;12.238;2024-02-15T00:48:35;7.87;;;7.03;;
6997;SDS011;3539;47.982;12.238;2024-02-15T00:51:01;7.90;;;6.33;;
6997;SDS011;3539;47.982;12.238;2024-02-15T00:53:28;7.00;;;6.10;;
6997;SDS011;3539;47.982;12.238;2024-02-15T00:55:55;6.23;;;5.47;;
6997;SDS011;3539;47.982;12.238;2024-02-15T00:58:23;7.60;;;5.73;;
6997;SDS011;3539;47.982;12.238;2024-02-15T01:00:52;6.63;;;5.93;;
6997;SDS011;3539;47.982;12.238;2024-02-15T01:03:18;5.40;;;4.90;;
6997;SDS011;3539;47.982;12.238;2024-02-15T01:05:46;6.10;;;5.50;;
6997;SDS011;3539;47.982;12.238;2024-02-15T01:08:12;6.20;;;4.93;;
6997;SDS011;3539;47.982;12.238;2024-02-15T01:10:39;5.50;;;5.00;;
6997;SDS011;3539;47.982;12.238;2024-02-15T01:13:06;5.33;;;4.83;;
6997;SDS011;3539;47.982;12.238;2024-02-15T01:15:35;6.50;;;5.10;;
6997;SDS011;3539;47.982;12.238;2024-02-15T01:18:02;7.30;;;5.90;;
6997;SDS011;3539;47.982;12.238;2024-02-15T01:20:29;6.33;;;5.67;;
6997;SDS011;3539;47.982;12.238;2024-02-15T01:22:56;5.67;;;4.90;;
6997;SDS011;3539;47.982;12.238;2024-02-15T01:25:23;5.60;;;5.10;;
6997;SDS011;3539;47.982;12.238;2024-02-15T01:27:50;6.77;;;5.10;;
6997;SDS011;3539;47.982;12.238;2024-02-15T01:30:17;5.63;;;5.03;;
6997;SDS011;3539;47.982;12.238;2024-02-15T01:32:45;6.97;;;5.27;;
6997;SDS011;3539;47.982;12.238;2024-02-15T01:35:12;6.23;;;5.60;;
6997;SDS011;3539;47.982;12.238;2024-02-15T01:37:39;5.83;;;5.23;;
6997;SDS011;3539;47.982;12.238;2024-02-15T01:40:06;6.77;;;4.73;;
6997;SDS011;3539;47.982;12.238;2024-02-15T01:42:37;4.87;;;4.30;;
6997;SDS011;3539;47.982;12.238;2024-02-15T01:45:05;4.70;;;4.30;;
6997;SDS011;3539;47.982;12.238;2024-02-15T01:47:32;5.77;;;4.47;;
6997;SDS011;3539;47.982;12.238;2024-02-15T01:50:00;5.03;;;4.50;;
6997;SDS011;3539;47.982;12.238;2024-02-15T01:52:27;4.60;;;4.10;;
6997;SDS011;3539;47.982;12.238;2024-02-15T01:54:54;5.80;;;4.13;;
6997;SDS011;3539;47.982;12.238;2024-02-15T01:57:21;4.37;;;3.97;;
6997;SDS011;3539;47.982;12.238;2024-02-15T01:59:49;4.50;;;4.10;;
6997;SDS011;3539;47.982;12.238;2024-02-15T02:02:16;5.60;;;4.30;;
6997;SDS011;3539;47.982;12.238;2024-02-15T02:04:45;4.53;;;4.00;;
6997;SDS011;3539;47.982;12.238;2024-02-15T02:07:13;6.13;;;4.90;;
6997;SDS011;3539;47.982;12.238;2024-02-15T02:09:40;4.90;;;4.40;;
6997;SDS011;3539;47.982;12.238;2024-02-15T02:12:07;4.53;;;4.13;;
6997;SDS011;3539;47.982;12.238;2024-02-15T02:14:35;5.13;;;4.53;;
6997;SDS011;3539;47.982;12.238;2024-02-15T02:17:10;5.00;;;4.50;;
6997;SDS011;3539;47.982;12.238;2024-02-15T02:19:38;5.07;;;4.30;;
6997;SDS011;3539;47.982;12.238;2024-02-15T02:22:05;5.50;;;4.27;;
6997;SDS011;3539;47.982;12.238;2024-02-15T02:24:36;4.70;;;4.20;;
6997;SDS011;3539;47.982;12.238;2024-02-15T02:27:08;4.87;;;4.37;;
6997;SDS011;3539;47.982;12.238;2024-02-15T02:29:40;5.97;;;4.60;;
6997;SDS011;3539;47.982;12.238;2024-02-15T02:32:11;5.30;;;4.27;;
6997;SDS011;3539;47.982;12.238;2024-02-15T02:34:37;5.93;;;4.90;;
6997;SDS011;3539;47.982;12.238;2024-02-15T02:37:06;6.43;;;5.23;;
6997;SDS011;3539;47.982;12.238;2024-02-15T02:39:33;7.03;;;4.77;;
6997;SDS011;3539;47.982;12.238;2024-02-15T02:42:00;5.83;;;5.23;;
6997;SDS011;3539;47.982;12.238;2024-02-15T02:44:28;6.10;;;5.43;;
6997;SDS011;3539;47.982;12.238;2024-02-15T02:46:55;5.67;;;5.13;;
6997;SDS011;3539;47.982;12.238;2024-02-15T02:49:21;5.17;;;4.67;;
6997;SDS011;3539;47.982;12.238;2024-02-15T02:51:48;4.67;;;4.07;;
6997;SDS011;3539;47.982;12.238;2024-02-15T02:54:15;4.63;;;4.10;;
6997;SDS011;3539;47.982;12.238;2024-02-15T02:56:42;4.87;;;4.37;;
6997;SDS011;3539;47.982;12.238;2024-02-15T02:59:10;5.60;;;4.97;;
6997;SDS011;3539;47.982;12.238;2024-02-15T03:01:39;4.80;;;4.30;;
6997;SDS011;3539;47.982;12.238;2024-02-15T03:04:06;5.80;;;4.87;;
6997;SDS011;3539;47.982;12.238;2024-02-15T03:06:32;4.83;;;4.23;;
6997;SDS011;3539;47.982;12.238;2024-02-15T03:08:59;6.60;;;5.03;;
6997;SDS011;3539;47.982;12.238;2024-02-15T03:11:28;4.80;;;4.17;;
6997;SDS011;3539;47.982;12.238;2024-02-15T03:13:54;6.00;;;3.80;;
6997;SDS011;3539;47.982;12.238;2024-02-15T03:16:24;4.47;;;4.07;;
6997;SDS011;3539;47.982;12.238;2024-02-15T03:18:53;4.20;;;3.80;;
6997;SDS011;3539;47.982;12.238;2024-02-15T03:21:20;5.00;;;4.07;;
6997;SDS011;3539;47.982;12.238;2024-02-15T03:23:47;5.20;;;4.40;;
6997;SDS011;3539;47.982;12.238;2024-02-15T03:26:14;4.50;;;4.10;;
6997;SDS011;3539;47.982;12.238;2024-02-15T03:28:40;4.57;;;4.10;;
6997;SDS011;3539;47.982;12.238;2024-02-15T03:31:07;4.70;;;4.10;;
6997;SDS011;3539;47.982;12.238;2024-02-15T03:33:34;4.77;;;4.10;;
6997;SDS011;3539;47.982;12.238;2024-02-15T03:36:04;6.47;;;4.13;;
6997;SDS011;3539;47.982;12.238;2024-02-15T03:38:31;5.07;;;4.10;;
6997;SDS011;3539;47.982;12.238;2024-02-15T03:40:58;4.30;;;3.90;;
6997;SDS011;3539;47.982;12.238;2024-02-15T03:43:24;4.87;;;4.20;;
6997;SDS011;3539;47.982;12.238;2024-02-15T03:45:51;4.70;;;4.20;;
6997;SDS011;3539;47.982;12.238;2024-02-15T03:48:18;4.60;;;4.20;;
6997;SDS011;3539;47.982;12.238;2024-02-15T03:50:45;4.67;;;4.10;;
6997;SDS011;3539;47.982;12.238;2024-02-15T03:53:14;4.30;;;3.77;;
6997;SDS011;3539;47.982;12.238;2024-02-15T03:55:41;5.20;;;4.07;;
6997;SDS011;3539;47.982;12.238;2024-02-15T03:58:08;4.40;;;4.00;;
6997;SDS011;3539;47.982;12.238;2024-02-15T04:00:35;4.40;;;4.00;;
6997;SDS011;3539;47.982;12.238;2024-02-15T04:03:02;5.87;;;4.33;;
6997;SDS011;3539;47.982;12.238;2024-02-15T04:05:30;4.90;;;3.83;;
6997;SDS011;3539;47.982;12.238;2024-02-15T04:07:57;4.83;;;4.23;;
6997;SDS011;3539;47.982;12.238;2024-02-15T04:10:28;5.57;;;4.27;;
6997;SDS011;3539;47.982;12.238;2024-02-15T04:12:55;4.17;;;3.77;;
6997;SDS011;3539;47.982;12.238;2024-02-15T04:15:23;4.90;;;4.20;;
6997;SDS011;3539;47.982;12.238;2024-02-15T04:17:50;5.17;;;4.03;;
6997;SDS011;3539;47.982;12.238;2024-02-15T04:20:21;4.83;;;3.70;;
6997;SDS011;3539;47.982;12.238;2024-02-15T04:22:48;4.87;;;3.80;;
6997;SDS011;3539;47.982;12.238;2024-02-15T04:25:15;5.53;;;4.20;;
6997;SDS011;3539;47.982;12.238;2024-02-15T04:27:44;4.87;;;3.90;;
6997;SDS011;3539;47.982;12.238;2024-02-15T04:30:11;4.77;;;4.00;;
6997;SDS011;3539;47.982;12.238;2024-02-15T04:32:40;4.53;;;4.10;;
6997;SDS011;3539;47.982;12.238;2024-02-15T04:35:07;4.93;;;4.33;;
6997;SDS011;3539;47.982;12.238;2024-02-15T04:37:35;4.23;;;3.83;;
6997;SDS011;3539;47.982;12.238;2024-02-15T04:40:02;5.65;;;4.32;;
6997;SDS011;3539;47.982;12.238;2024-02-15T04:42:33;4.27;;;3.87;;
6997;SDS011;3539;47.982;12.238;2024-02-15T04:45:04;4.60;;;3.70;;
6997;SDS011;3539;47.982;12.238;2024-02-15T04:47:35;3.60;;;3.30;;
6997;SDS011;3539;47.982;12.238;2024-02-15T04:50:01;4.00;;;3.60;;
6997;SDS011;3539;47.982;12.238;2024-02-15T04:52:31;3.90;;;3.60;;
6997;SDS011;3539;47.982;12.238;2024-02-15T04:54:57;4.17;;;3.77;;
6997;SDS011;3539;47.982;12.238;2024-02-15T04:57:24;4.63;;;4.00;;
6997;SDS011;3539;47.982;12.238;2024-02-15T04:59:53;6.00;;;4.10;;
6997;SDS011;3539;47.982;12.238;2024-02-15T05:02:21;4.90;;;4.40;;
6997;SDS011;3539;47.982;12.238;2024-02-15T05:04:49;4.33;;;3.73;;
6997;SDS011;3539;47.982;12.238;2024-02-15T05:07:20;3.77;;;3.30;;
6997;SDS011;3539;47.982;12.238;2024-02-15T05:09:47;5.10;;;3.50;;
6997;SDS011;3539;47.982;12.238;2024-02-15T05:12:21;7.30;;;4.27;;
6997;SDS011;3539;47.982;12.238;2024-02-15T05:14:48;5.07;;;4.20;;
6997;SDS011;3539;47.982;12.238;2024-02-15T05:17:15;6.13;;;5.63;;
6997;SDS011;3539;47.982;12.238;2024-02-15T05:19:43;7.27;;;5.00;;
6997;SDS011;3539;47.982;12.238;2024-02-15T05:22:11;5.70;;;5.17;;
6997;SDS011;3539;47.982;12.238;2024-02-15T05:24:38;5.60;;;4.80;;
6997;SDS011;3539;47.982;12.238;2024-02-15T05:27:05;4.17;;;3.73;;
6997;SDS011;3539;47.982;12.238;2024-02-15T05:29:33;5.90;;;4.33;;
6997;SDS011;3539;47.982;12.238;2024-02-15T05:32:04;4.33;;;3.27;;
6997;SDS011;3539;47.982;12.238;2024-02-15T05:34:31;4.07;;;3.70;;
6997;SDS011;3539;47.982;12.238;2024-02-15T05:37:00;4.33;;;3.83;;
6997;SDS011;3539;47.982;12.238;2024-02-15T05:39:26;4.57;;;3.70;;
6997;SDS011;3539;47.982;12.238;2024-02-15T05:41:53;3.90;;;3.50;;
6997;SDS011;3539;47.982;12.238;2024-02-15T05:44:25;3.77;;;3.40;;
6997;SDS011;3539;47.982;12.238;2024-02-15T05:46:53;4.03;;;3.37;;
6997;SDS011;3539;47.982;12.238;2024-02-15T05:49:19;5.57;;;3.70;;
6997;SDS011;3539;47.982;12.238;2024-02-15T05:51:48;4.23;;;3.70;;
6997;SDS011;3539;47.982;12.238;2024-02-15T05:54:16;5.03;;;4.07;;
6997;SDS011;3539;47.982;12.238;2024-02-15T05:56:43;6.50;;;3.83;;
6997;SDS011;3539;47.982;12.238;2024-02-15T05:59:10;4.80;;;4.30;;
6997;SDS011;3539;47.982;12.238;2024-02-15T06:01:38;5.63;;;3.60;;
6997;SDS011;3539;47.982;12.238;2024-02-15T06:04:06;4.40;;;4.00;;
6997;SDS011;3539;47.982;12.238;2024-02-15T06:06:33;4.43;;;4.03;;
6997;SDS011;3539;47.982;12.238;2024-02-15T06:09:00;4.97;;;3.97;;
6997;SDS011;3539;47.982;12.238;2024-02-15T06:11:29;5.27;;;4.53;;
6997;SDS011;3539;47.982;12.238;2024-02-15T06:13:56;5.03;;;3.30;;
6997;SDS011;3539;47.982;12.238;2024-02-15T06:16:23;4.90;;;4.07;;
6997;SDS011;3539;47.982;12.238;2024-02-15T06:18:50;5.43;;;4.50;;
6997;SDS011;3539;47.982;12.238;2024-02-15T06:21:17;4.50;;;4.10;;
6997;SDS011;3539;47.982;12.238;2024-02-15T06:23:45;5.13;;;4.57;;
6997;SDS011;3539;47.982;12.238;2024-02-15T06:26:13;4.83;;;4.23;;
6997;SDS011;3539;47.982;12.238;2024-02-15T06:28:41;6.83;;;4.47;;
6997;SDS011;3539;47.982;12.238;2024-02-15T06:31:25;6.83;;;4.50;;
6997;SDS011;3539;47.982;12.238;2024-02-15T06:34:10;24.27;;;16.57;;
6997;SDS011;3539;47.982;12.238;2024-02-15T06:36:55;26.90;;;17.67;;
6997;SDS011;3539;47.982;12.238;2024-02-15T06:39:39;16.90;;;9.90;;
6997;SDS011;3539;47.982;12.238;2024-02-15T06:42:10;11.57;;;7.90;;
6997;SDS011;3539;47.982;12.238;2024-02-15T06:44:41;7.37;;;5.77;;
6997;SDS011;3539;47.982;12.238;2024-02-15T06:47:08;4.53;;;3.93;;
6997;SDS011;3539;47.982;12.238;2024-02-15T06:49:36;4.33;;;3.93;;
6997;SDS011;3539;47.982;12.238;2024-02-15T06:52:05;4.40;;;3.90;;
6997;SDS011;3539;47.982;12.238;2024-02-15T06:54:32;3.67;;;3.17;;
6997;SDS011;3539;47.982;12.238;2024-02-15T06:56:58;6.07;;;3.60;;
6997;SDS011;3539;47.982;12.238;2024-02-15T06:59:26;4.30;;;3.90;;
6997;SDS011;3539;47.982;12.238;2024-02-15T07:01:54;4.10;;;3.50;;
6997;SDS011;3539;47.982;12.238;2024-02-15T07:04:20;4.67;;;3.50;;
6997;SDS011;3539;47.982;12.238;2024-02-15T07:06:48;4.10;;;3.70;;
6997;SDS011;3539;47.982;12.238;2024-02-15T07:09:17;4.27;;;3.60;;
6997;SDS011;3539;47.982;12.238;2024-02-15T07:11:44;5.10;;;3.70;;
6997;SDS011;3539;47.982;12.238;2024-02-15T07:14:11;4.10;;;3.50;;
6997;SDS011;3539;47.982;12.238;2024-02-15T07:16:38;4.13;;;3.47;;
6997;SDS011;3539;47.982;12.238;2024-02-15T07:19:06;3.47;;;3.17;;
6997;SDS011;3539;47.982;12.238;2024-02-15T07:21:34;3.87;;;3.47;;
6997;SDS011;3539;47.982;12.238;2024-02-15T07:24:01;4.00;;;3.23;;
6997;SDS011;3539;47.982;12.238;2024-02-15T07:26:29;4.90;;;3.20;;
6997;SDS011;3539;47.982;12.238;2024-02-15T07:28:56;4.27;;;3.80;;
6997;SDS011;3539;47.982;12.238;2024-02-15T07:31:27;5.37;;;4.37;;
6997;SDS011;3539;47.982;12.238;2024-02-15T07:33:54;12.73;;;8.37;;
6997;SDS011;3539;47.982;12.238;2024-02-15T07:36:22;9.70;;;8.77;;
6997;SDS011;3539;47.982;12.238;2024-02-15T07:38:51;9.60;;;8.57;;
6997;SDS011;3539;47.982;12.238;2024-02-15T07:41:18;8.87;;;7.33;;
6997;SDS011;3539;47.982;12.238;2024-02-15T07:43:47;24.43;;;17.33;;
6997;SDS011;3539;47.982;12.238;2024-02-15T07:46:14;16.50;;;12.90;;
6997;SDS011;3539;47.982;12.238;2024-02-15T07:48:41;20.97;;;12.87;;
6997;SDS011;3539;47.982;12.238;2024-02-15T07:51:11;15.20;;;11.07;;
6997;SDS011;3539;47.982;12.238;2024-02-15T07:53:41;12.90;;;10.43;;
6997;SDS011;3539;47.982;12.238;2024-02-15T07:56:09;14.80;;;11.03;;
6997;SDS011;3539;47.982;12.238;2024-02-15T07:58:38;9.87;;;8.37;;
6997;SDS011;3539;47.982;12.238;2024-02-15T08:01:06;9.10;;;6.77;;
6997;SDS011;3539;47.982;12.238;2024-02-15T08:03:34;9.30;;;7.97;;
6997;SDS011;3539;47.982;12.238;2024-02-15T08:06:01;9.43;;;8.37;;
6997;SDS011;3539;47.982;12.238;2024-02-15T08:08:32;9.93;;;8.10;;
6997;SDS011;3539;47.982;12.238;2024-02-15T08:11:02;11.20;;;8.53;;
6997;SDS011;3539;47.982;12.238;2024-02-15T08:13:29;10.17;;;8.77;;
6997;SDS011;3539;47.982;12.238;2024-02-15T08:15:56;10.23;;;8.57;;
6997;SDS011;3539;47.982;12.238;2024-02-15T08:18:23;10.47;;;8.87;;
6997;SDS011;3539;47.982;12.238;2024-02-15T08:20:50;9.63;;;8.63;;
6997;SDS011;3539;47.982;12.238;2024-02-15T08:23:17;8.53;;;7.73;;
6997;SDS011;3539;47.982;12.238;2024-02-15T08:25:44;8.57;;;6.83;;
6997;SDS011;3539;47.982;12.238;2024-02-15T08:28:12;7.70;;;6.30;;
6997;SDS011;3539;47.982;12.238;2024-02-15T08:30:40;11.53;;;10.33;;
6997;SDS011;3539;47.982;12.238;2024-02-15T08:33:06;10.23;;;9.23;;
6997;SDS011;3539;47.982;12.238;2024-02-15T08:35:36;11.50;;;9.47;;
6997;SDS011;3539;47.982;12.238;2024-02-15T08:38:03;7.33;;;6.50;;
6997;SDS011;3539;47.982;12.238;2024-02-15T08:40:31;8.30;;;7.07;;
6997;SDS011;3539;47.982;12.238;2024-02-15T08:42:57;7.50;;;6.77;;
6997;SDS011;3539;47.982;12.238;2024-02-15T08:45:26;7.60;;;6.27;;
6997;SDS011;3539;47.982;12.238;2024-02-15T08:47:52;6.43;;;5.13;;
6997;SDS011;3539;47.982;12.238;2024-02-15T08:50:19;7.67;;;5.50;;
6997;SDS011;3539;47.982;12.238;2024-02-15T08:52:48;7.53;;;5.20;;
6997;SDS011;3539;47.982;12.238;2024-02-15T08:55:15;7.60;;;5.40;;
6997;SDS011;3539;47.982;12.238;2024-02-15T08:57:42;5.60;;;4.57;;
6997;SDS011;3539;47.982;12.238;2024-02-15T09:00:09;5.00;;;4.40;;
6997;SDS011;3539;47.982;12.238;2024-02-15T09:02:43;4.83;;;4.20;;
6997;SDS011;3539;47.982;12.238;2024-02-15T09:05:10;5.10;;;4.37;;
6997;SDS011;3539;47.982;12.238;2024-02-15T09:07:39;5.27;;;4.20;;
6997;SDS011;3539;47.982;12.238;2024-02-15T09:10:07;5.23;;;3.87;;
6997;SDS011;3539;47.982;12.238;2024-02-15T09:12:35;6.90;;;4.33;;
6997;SDS011;3539;47.982;12.238;2024-02-15T09:15:04;7.97;;;4.10;;
6997;SDS011;3539;47.982;12.238;2024-02-15T09:17:32;6.17;;;4.50;;
6997;SDS011;3539;47.982;12.238;2024-02-15T09:20:06;5.90;;;3.90;;
6997;SDS011;3539;47.982;12.238;2024-02-15T09:22:34;4.90;;;4.40;;
6997;SDS011;3539;47.982;12.238;2024-02-15T09:25:01;6.07;;;4.07;;
6997;SDS011;3539;47.982;12.238;2024-02-15T09:27:28;5.43;;;4.30;;
6997;SDS011;3539;47.982;12.238;2024-02-15T09:29:55;4.70;;;3.90;;
6997;SDS011;3539;47.982;12.238;2024-02-15T09:32:22;5.23;;;4.10;;
6997;SDS011;3539;47.982;12.238;2024-02-15T09:34:48;5.10;;;4.20;;
6997;SDS011;3539;47.982;12.238;2024-02-15T09:37:17;4.67;;;4.00;;
6997;SDS011;3539;47.982;12.238;2024-02-15T09:39:43;6.30;;;4.40;;
6997;SDS011;3539;47.982;12.238;2024-02-15T09:42:11;4.83;;;3.80;;
6997;SDS011;3539;47.982;12.238;2024-02-15T09:44:38;5.17;;;4.00;;
6997;SDS011;3539;47.982;12.238;2024-02-15T09:47:06;4.77;;;3.83;;
6997;SDS011;3539;47.982;12.238;2024-02-15T09:49:35;3.67;;;3.33;;
6997;SDS011;3539;47.982;12.238;2024-02-15T09:52:04;4.30;;;3.50;;
6997;SDS011;3539;47.982;12.238;2024-02-15T09:54:37;3.67;;;3.37;;
6997;SDS011;3539;47.982;12.238;2024-02-15T09:57:06;3.63;;;3.10;;
6997;SDS011;3539;47.982;12.238;2024-02-15T09:59:33;4.73;;;3.17;;
6997;SDS011;3539;47.982;12.238;2024-02-15T10:02:01;6.23;;;3.80;;
6997;SDS011;3539;47.982;12.238;2024-02-15T10:04:28;3.83;;;3.43;;
6997;SDS011;3539;47.982;12.238;2024-02-15T10:06:55;4.43;;;3.30;;
6997;SDS011;3539;47.982;12.238;2024-02-15T10:09:23;5.17;;;3.07;;
6997;SDS011;3539;47.982;12.238;2024-02-15T10:11:56;3.50;;;3.20;;
6997;SDS011;3539;47.982;12.238;2024-02-15T10:14:24;3.70;;;3.27;;
6997;SDS011;3539;47.982;12.238;2024-02-15T10:16:52;3.50;;;2.57;;
6997;SDS011;3539;47.982;12.238;2024-02-15T10:19:19;3.70;;;2.90;;
6997;SDS011;3539;47.982;12.238;2024-02-15T10:21:50;3.53;;;2.40;;
6997;SDS011;3539;47.982;12.238;2024-02-15T10:24:20;3.07;;;2.60;;
6997;SDS011;3539;47.982;12.238;2024-02-15T10:26:48;2.67;;;2.30;;
6997;SDS011;3539;47.982;12.238;2024-02-15T10:29:18;2.60;;;2.40;;
6997;SDS011;3539;47.982;12.238;2024-02-15T10:31:52;2.87;;;2.40;;
6997;SDS011;3539;47.982;12.238;2024-02-15T10:34:19;3.63;;;2.23;;
6997;SDS011;3539;47.982;12.238;2024-02-15T10:36:46;2.20;;;1.90;;
6997;SDS011;3539;47.982;12.238;2024-02-15T10:39:13;3.53;;;2.10;;
6997;SDS011;3539;47.982;12.238;2024-02-15T10:41:43;2.67;;;1.83;;
6997;SDS011;3539;47.982;12.238;2024-02-15T10:44:12;3.33;;;1.60;;
6997;SDS011;3539;47.982;12.238;2024-02-15T10:46:42;2.37;;;1.90;;
6997;SDS011;3539;47.982;12.238;2024-02-15T10:49:11;1.80;;;1.40;;
6997;SDS011;3539;47.982;12.238;2024-02-15T10:51:38;1.67;;;1.50;;
6997;SDS011;3539;47.982;12.238;2024-02-15T10:54:11;1.70;;;1.57;;
6997;SDS011;3539;47.982;12.238;2024-02-15T10:56:41;2.70;;;1.60;;
6997;SDS011;3539;47.982;12.238;2024-02-15T10:59:15;1.77;;;1.50;;
6997;SDS011;3539;47.982;12.238;2024-02-15T11:01:44;1.83;;;1.63;;
6997;SDS011;3539;47.982;12.238;2024-02-15T11:04:12;2.33;;;1.60;;
6997;SDS011;3539;47.982;12.238;2024-02-15T11:06:42;4.57;;;1.60;;
6997;SDS011;3539;47.982;12.238;2024-02-15T11:09:10;3.40;;;2.00;;
6997;SDS011;3539;47.982;12.238;2024-02-15T11:11:38;2.63;;;1.80;;
6997;SDS011;3539;47.982;12.238;2024-02-15T11:14:24;4.77;;;1.87;;
6997;SDS011;3539;47.982;12.238;2024-02-15T11:16:53;2.30;;;1.90;;
6997;SDS011;3539;47.982;12.238;2024-02-15T11:19:39;1.70;;;1.50;;
6997;SDS011;3539;47.982;12.238;2024-02-15T11:22:07;1.73;;;1.40;;
6997;SDS011;3539;47.982;12.238;2024-02-15T11:24:35;2.70;;;1.80;;
6997;SDS011;3539;47.982;12.238;2024-02-15T11:27:04;1.83;;;1.50;;
6997;SDS011;3539;47.982;12.238;2024-02-15T11:29:47;2.70;;;1.60;;
6997;SDS011;3539;47.982;12.238;2024-02-15T11:32:36;1.97;;;1.63;;
6997;SDS011;3539;47.982;12.238;2024-02-15T11:35:05;1.80;;;1.50;;
6997;SDS011;3539;47.982;12.238;2024-02-15T11:46:24;2.47;;;1.40;;
6997;SDS011;3539;47.982;12.238;2024-02-15T11:48:56;1.70;;;1.40;;
6997;SDS011;3539;47.982;12.238;2024-02-15T11:51:28;2.10;;;1.17;;
6997;SDS011;3539;47.982;12.238;2024-02-15T11:53:59;2.43;;;1.37;;
6997;SDS011;3539;47.982;12.238;2024-02-15T11:56:30;1.37;;;1.17;;
6997;SDS011;3539;47.982;12.238;2024-02-15T11:59:02;1.83;;;1.20;;
6997;SDS011;3539;47.982;12.238;2024-02-15T12:01:31;1.30;;;1.00;;
6997;SDS011;3539;47.982;12.238;2024-02-15T12:04:17;0.90;;;0.90;;
6997;SDS011;3539;47.982;12.238;2024-02-15T12:07:02;2.03;;;1.00;;
6997;SDS011;3539;47.982;12.238;2024-02-15T12:09:46;2.10;;;1.00;;
6997;SDS011;3539;47.982;12.238;2024-02-15T12:12:30;1.47;;;0.83;;
6997;SDS011;3539;47.982;12.238;2024-02-15T12:15:14;0.90;;;0.90;;
6997;SDS011;3539;47.982;12.238;2024-02-15T12:18:13;1.43;;;0.93;;
6997;SDS011;3539;47.982;12.238;2024-02-15T12:20:59;1.00;;;0.83;;
6997;SDS011;3539;47.982;12.238;2024-02-15T12:23:27;1.73;;;0.93;;
6997;SDS011;3539;47.982;12.238;2024-02-15T12:25:55;1.13;;;0.80;;
6997;SDS011;3539;47.982;12.238;2024-02-15T12:28:23;0.60;;;0.60;;
6997;SDS011;3539;47.982;12.238;2024-02-15T12:30:54;1.80;;;0.90;;
6997;SDS011;3539;47.982;12.238;2024-02-15T12:33:22;0.93;;;0.80;;
6997;SDS011;3539;47.982;12.238;2024-02-15T12:35:49;1.00;;;0.90;;
6997;SDS011;3539;47.982;12.238;2024-02-15T12:38:17;1.93;;;1.20;;
6997;SDS011;3539;47.982;12.238;2024-02-15T12:40:45;0.97;;;0.90;;
6997;SDS011;3539;47.982;12.238;2024-02-15T12:43:12;0.90;;;0.90;;
6997;SDS011;3539;47.982;12.238;2024-02-15T12:45:39;1.37;;;1.10;;
6997;SDS011;3539;47.982;12.238;2024-02-15T12:48:06;1.33;;;0.97;;
6997;SDS011;3539;47.982;12.238;2024-02-15T12:50:34;0.87;;;0.80;;
6997;SDS011;3539;47.982;12.238;2024-02-15T12:53:01;0.83;;;0.70;;
6997;SDS011;3539;47.982;12.238;2024-02-15T12:55:30;0.97;;;0.80;;
6997;SDS011;3539;47.982;12.238;2024-02-15T12:58:00;1.63;;;0.90;;
6997;SDS011;3539;47.982;12.238;2024-02-15T13:00:29;0.87;;;0.80;;
6997;SDS011;3539;47.982;12.238;2024-02-15T13:02:58;0.77;;;0.73;;
6997;SDS011;3539;47.982;12.238;2024-02-15T13:05:28;1.53;;;1.00;;
6997;SDS011;3539;47.982;12.238;2024-02-15T13:07:55;1.60;;;0.90;;
6997;SDS011;3539;47.982;12.238;2024-02-15T13:10:23;1.43;;;1.30;;
6997;SDS011;3539;47.982;12.238;2024-02-15T13:12:52;0.80;;;0.80;;
6997;SDS011;3539;47.982;12.238;2024-02-15T13:15:20;0.87;;;0.73;;
6997;SDS011;3539;47.982;12.238;2024-02-15T13:17:52;0.93;;;0.83;;
6997;SDS011;3539;47.982;12.238;2024-02-15T13:20:19;1.33;;;0.93;;
6997;SDS011;3539;47.982;12.238;2024-02-15T13:22:57;0.80;;;0.80;;
6997;SDS011;3539;47.982;12.238;2024-02-15T13:25:27;0.73;;;0.60;;
6997;SDS011;3539;47.982;12.238;2024-02-15T13:27:55;0.80;;;0.80;;
6997;SDS011;3539;47.982;12.238;2024-02-15T13:30:22;1.40;;;1.30;;
6997;SDS011;3539;47.982;12.238;2024-02-15T13:32:52;1.80;;;1.33;;
6997;SDS011;3539;47.982;12.238;2024-02-15T13:35:19;2.07;;;1.50;;
6997;SDS011;3539;47.982;12.238;2024-02-15T13:37:49;1.23;;;1.10;;
6997;SDS011;3539;47.982;12.238;2024-02-15T13:40:17;1.00;;;0.80;;
6997;SDS011;3539;47.982;12.238;2024-02-15T13:42:48;1.47;;;1.00;;
6997;SDS011;3539;47.982;12.238;2024-02-15T13:45:19;1.47;;;0.97;;
6997;SDS011;3539;47.982;12.238;2024-02-15T13:47:47;1.10;;;1.00;;
6997;SDS011;3539;47.982;12.238;2024-02-15T13:50:15;1.70;;;1.07;;
6997;SDS011;3539;47.982;12.238;2024-02-15T13:52:42;1.47;;;0.90;;
6997;SDS011;3539;47.982;12.238;2024-02-15T13:55:12;1.23;;;0.93;;
6997;SDS011;3539;47.982;12.238;2024-02-15T13:57:40;1.40;;;1.07;;
6997;SDS011;3539;47.982;12.238;2024-02-15T14:00:08;1.20;;;1.10;;
6997;SDS011;3539;47.982;12.238;2024-02-15T14:02:41;1.10;;;1.00;;
6997;SDS011;3539;47.982;12.238;2024-02-15T14:05:08;1.50;;;0.90;;
6997;SDS011;3539;47.982;12.238;2024-02-15T14:07:36;1.77;;;1.00;;
6997;SDS011;3539;47.982;12.238;2024-02-15T14:10:04;0.90;;;0.90;;
6997;SDS011;3539;47.982;12.238;2024-02-15T14:12:32;2.60;;;0.90;;
6997;SDS011;3539;47.982;12.238;2024-02-15T14:14:59;1.10;;;1.00;;
6997;SDS011;3539;47.982;12.238;2024-02-15T14:17:26;1.97;;;1.20;;
6997;SDS011;3539;47.982;12.238;2024-02-15T14:19:54;1.90;;;1.20;;
6997;SDS011;3539;47.982;12.238;2024-02-15T14:22:22;1.20;;;0.97;;
6997;SDS011;3539;47.982;12.238;2024-02-15T14:24:53;1.50;;;1.10;;
6997;SDS011;3539;47.982;12.238;2024-02-15T14:27:20;1.90;;;1.40;;
6997;SDS011;3539;47.982;12.238;2024-02-15T14:29:47;2.17;;;1.50;;
6997;SDS011;3539;47.982;12.238;2024-02-15T14:32:27;1.80;;;1.40;;
6997;SDS011;3539;47.982;12.238;2024-02-15T14:35:12;1.43;;;1.30;;
6997;SDS011;3539;47.982;12.238;2024-02-15T14:37:42;1.60;;;1.40;;
6997;SDS011;3539;47.982;12.238;2024-02-15T14:40:09;2.20;;;1.80;;
6997;SDS011;3539;47.982;12.238;2024-02-15T14:42:39;2.17;;;1.40;;
6997;SDS011;3539;47.982;12.238;2024-02-15T14:45:07;1.80;;;1.40;;
6997;SDS011;3539;47.982;12.238;2024-02-15T14:47:34;3.10;;;1.57;;
6997;SDS011;3539;47.982;12.238;2024-02-15T14:50:01;3.43;;;1.40;;
6997;SDS011;3539;47.982;12.238;2024-02-15T14:52:30;1.90;;;1.50;;
6997;SDS011;3539;47.982;12.238;2024-02-15T14:54:57;7.43;;;5.00;;
6997;SDS011;3539;47.982;12.238;2024-02-15T14:57:23;3.00;;;2.27;;
6997;SDS011;3539;47.982;12.238;2024-02-15T14:59:50;2.77;;;1.87;;
6997;SDS011;3539;47.982;12.238;2024-02-15T15:02:17;3.23;;;1.50;;
6997;SDS011;3539;47.982;12.238;2024-02-15T15:04:44;1.47;;;1.37;;
6997;SDS011;3539;47.982;12.238;2024-02-15T15:07:35;2.67;;;1.30;;
6997;SDS011;3539;47.982;12.238;2024-02-15T15:10:19;1.73;;;1.30;;
6997;SDS011;3539;47.982;12.238;2024-02-15T15:13:03;2.17;;;1.20;;
6997;SDS011;3539;47.982;12.238;2024-02-15T15:15:29;2.07;;;1.70;;
6997;SDS011;3539;47.982;12.238;2024-02-15T15:17:56;2.33;;;1.40;;
6997;SDS011;3539;47.982;12.238;2024-02-15T15:20:24;2.90;;;1.53;;